Flinterbirka — PHFQ — position and weather

sailwx.info

Track history (hours):
 
Tides and Currents Weather Stations Pressure Air Temp Water Temp Dewpoint Dewpoint Depression Visibility Wind Speed Wind Dir Waves Ship Positions

Flinterbirka

Last reported at 2016-May-04 13:31 UTC. Time now 2016-May-04 13:40 UTC.
Position N 55°27' E 012°12'.

Length 81 m; draft 5.2 m.

Type: Cargo ship. MMSI: 246525000.

Date/timePositionNaut miles runAvg speedWind from/ knotsBaromVisibWave heightAir tempDewpointWater temp
2016-May-04 13:31N 55°27' E 012°12'0 0.0
2016-May-04 12:28N 55°27' E 012°12'0 0.0
2016-May-04 11:33N 55°27' E 012°12'0 0.0
2016-May-04 10:30N 55°27' E 012°12'0 0.0
2016-May-04 09:32N 55°27' E 012°12'0 0.0
2016-May-04 08:32N 55°27' E 012°12'0 0.0
2016-May-04 07:28N 55°27' E 012°12'0 0.0
2016-May-04 06:28N 55°27' E 012°12'0 0.0
2016-May-04 05:28N 55°27' E 012°12'0 0.0
2016-May-04 04:30N 55°27' E 012°12'0 0.0
2016-May-04 03:33N 55°27' E 012°12'0 0.0
2016-May-04 02:29N 55°27' E 012°12'0 0.0
2016-May-04 01:32N 55°27' E 012°12'0 0.0
2016-May-04 00:31N 55°27' E 012°12'0 0.0
2016-May-03 23:31N 55°27' E 012°12'0 0.0
2016-May-03 22:34N 55°27' E 012°12'0 0.0
2016-May-03 21:33N 55°27' E 012°12'0 0.0
2016-May-03 20:30N 55°27' E 012°12'0 0.0
2016-May-03 19:32N 55°27' E 012°12'0 0.0
2016-May-03 18:29N 55°27' E 012°12'0 0.0
2016-May-03 17:31N 55°27' E 012°12'0 0.0
2016-May-03 16:31N 55°27' E 012°12'0 0.0
2016-May-03 15:30N 55°27' E 012°12'0 0.0
2016-May-03 14:27N 55°27' E 012°12'0 0.0
2016-May-03 13:33N 55°27' E 012°12'0 0.0
2016-May-03 12:29N 55°27' E 012°12'0 0.0
2016-May-03 11:32N 55°27' E 012°12'0 0.0
2016-May-03 10:31N 55°27' E 012°12'0 0.0
2016-May-03 09:31N 55°27' E 012°12'0 0.0
2016-May-03 08:30N 55°27' E 012°12'0 0.0
2016-May-03 07:33N 55°27' E 012°12'0 0.0
2016-May-03 06:27N 55°27' E 012°12'0 0.0
2016-May-03 05:32N 55°27' E 012°12'0 0.0
2016-May-03 04:32N 55°27' E 012°12'0 0.0
2016-May-03 03:25N 55°27' E 012°12'0 0.0
2016-May-03 02:28N 55°27' E 012°12'0 0.0
2016-May-03 01:33N 55°27' E 012°12'0 0.0
2016-May-03 00:21N 55°27' E 012°12'0 0.0
2016-May-02 23:33N 55°27' E 012°12'0 0.0
2016-May-02 22:32N 55°27' E 012°12'0 0.0
2016-May-02 21:32N 55°27' E 012°12'0 0.0
2016-May-02 20:31N 55°27' E 012°12'0 0.0
2016-May-02 19:28N 55°27' E 012°12'0 0.0
2016-May-02 18:24N 55°27' E 012°12'0 0.1
2016-May-02 17:33N 55°27' E 012°12'8 7.9
2016-May-02 16:34N 55°27' E 012°26'8 7.9
2016-May-02 15:33N 55°20' E 012°33'1110.5
2016-May-02 14:33N 55°10' E 012°34'1010.4
2016-May-02 13:33N 54°59' E 012°36'10 9.7
2016-May-02 12:33N 54°50' E 012°31'20 9.8
2016-May-02 10:33N 54°32' E 012°18'9 9.4
2016-May-02 09:33N 54°24' E 012°09'10 9.7
2016-May-02 08:34N 54°24' E 011°53'10 9.5
2016-May-02 07:33N 54°27' E 011°37'9 9.3
2016-May-02 06:33N 54°31' E 011°23'9 9.0
2016-May-02 05:34N 54°35' E 011°09'9 9.5
2016-May-02 04:33N 54°34' E 010°52'1010.2
2016-May-02 03:33N 54°33' E 010°35'1010.0
2016-May-02 02:32N 54°29' E 010°19'9 9.4
2016-May-02 01:33N 54°22' E 010°09'3 2.9
2016-May-02 00:33N 54°22' E 010°04'11 5.5
2016-May-01 22:33N 54°21' E 009°45'20 6.2
2016-May-01 19:22N 54°08' E 009°20'7 8.5
2016-May-01 18:33N 54°01' E 009°18'8 8.5
2016-May-01 17:33N 53°54' E 009°09'1 1.2
2016-May-01 16:33N 53°53' E 009°08'9 8.6
2016-May-01 15:33N 53°50' E 008°54'1010.0
2016-May-01 14:34N 53°56' E 008°40'1010.3
2016-May-01 13:34N 53°59' E 008°23'1110.6
2016-May-01 12:33N 53°59' E 008°05'1010.3
2016-May-01 11:33N 53°57' E 007°48'9 9.5
2016-May-01 10:33N 53°54' E 007°32'9 9.2
2016-May-01 09:33N 53°52' E 007°17'9 9.1
2016-May-01 08:33N 53°50' E 007°02'9 9.0
2016-May-01 07:33N 53°48' E 006°47'9 9.1
2016-May-01 06:33N 53°46' E 006°32'9 9.3
2016-May-01 05:33N 53°43' E 006°17'10 9.6
2016-May-01 04:33N 53°40' E 006°02'1010.0
2016-May-01 03:33N 53°37' E 005°46'1010.3
2016-May-01 02:33N 53°34' E 005°29'1110.8
2016-May-01 01:33N 53°31' E 005°12'159 9.7
2016-Apr-30 09:13N 51°40' E 002°04'710.7
2016-Apr-30 08:33N 51°36' E 001°55'1111.1
2016-Apr-30 07:34N 51°31' E 001°38'1110.8
2016-Apr-30 06:33N 51°29' E 001°22'1110.6
2016-Apr-30 05:33N 51°29' E 001°05'10 9.2
2016-Apr-30 04:31N 51°29' E 000°49'8 8.7
2016-Apr-30 03:33N 51°30' E 000°36'7 7.0
2016-Apr-30 02:34N 51°27' E 000°26'3 3.3
2016-Apr-30 01:34N 51°27' E 000°21'1 0.5
2016-Apr-30 00:34N 51°28' E 000°21'0 0.0
2016-Apr-29 23:34N 51°28' E 000°21'0 0.0
2016-Apr-29 22:33N 51°28' E 000°21'0 0.0
2016-Apr-29 21:34N 51°28' E 000°21'0 0.0
2016-Apr-29 20:34N 51°28' E 000°21'0 0.0
2016-Apr-29 19:34N 51°28' E 000°21'0 0.0
2016-Apr-29 18:34N 51°28' E 000°21'0 0.0
2016-Apr-29 17:33N 51°28' E 000°21'0 0.0
2016-Apr-29 16:34N 51°28' E 000°21'0 0.0
2016-Apr-29 15:34N 51°28' E 000°21'0 0.0
2016-Apr-29 14:34N 51°28' E 000°21'0 0.0
2016-Apr-29 13:34N 51°28' E 000°21'0 0.0
2016-Apr-29 12:34N 51°28' E 000°21'0 0.0
2016-Apr-29 11:34N 51°28' E 000°21'0 0.0
2016-Apr-29 10:34N 51°28' E 000°21'0 0.0
2016-Apr-29 09:34N 51°28' E 000°21'0 0.0
2016-Apr-29 08:34N 51°28' E 000°21'0 0.0
2016-Apr-29 07:34N 51°28' E 000°21'0 0.0
2016-Apr-29 06:33N 51°28' E 000°21'0 0.0
2016-Apr-29 05:33N 51°28' E 000°21'0 0.0
2016-Apr-29 04:33N 51°28' E 000°21'0 0.0
2016-Apr-29 03:33N 51°28' E 000°21'0 0.0
2016-Apr-29 02:33N 51°28' E 000°21'0 0.0
2016-Apr-29 01:33N 51°28' E 000°21'0 0.0
2016-Apr-29 00:33N 51°28' E 000°21'0 0.0
2016-Apr-28 23:33N 51°28' E 000°21'0 0.0
2016-Apr-28 22:33N 51°28' E 000°21'0 0.0
2016-Apr-28 21:33N 51°28' E 000°21'0 0.0
2016-Apr-28 20:33N 51°28' E 000°21'0 0.0
2016-Apr-28 19:33N 51°28' E 000°21'0 0.0
2016-Apr-28 18:33N 51°28' E 000°21'0 0.0
2016-Apr-28 17:33N 51°28' E 000°21'0 0.0
2016-Apr-28 16:33N 51°28' E 000°21'0 0.0
2016-Apr-28 15:33N 51°28' E 000°21'0 0.0
2016-Apr-28 14:34N 51°28' E 000°21'0 0.0
2016-Apr-28 13:33N 51°28' E 000°21'0 0.0
2016-Apr-28 12:33N 51°28' E 000°21'0 0.0
2016-Apr-28 11:34N 51°28' E 000°21'0 0.0
2016-Apr-28 10:33N 51°28' E 000°21'0 0.0
2016-Apr-28 09:33N 51°28' E 000°21'0 0.0
2016-Apr-28 08:34N 51°28' E 000°21'0 0.0
2016-Apr-28 07:34N 51°28' E 000°21'0 0.0
2016-Apr-28 06:34N 51°28' E 000°21'0 0.3
2016-Apr-28 05:33N 51°27' E 000°21'1 0.6
2016-Apr-28 04:34N 51°27' E 000°22'7 6.5
2016-Apr-28 03:34N 51°30' E 000°31'10 9.7
2016-Apr-28 02:34N 51°30' E 000°47'8 8.2
2016-Apr-28 01:32N 51°30' E 001°00'7 7.7
2016-Apr-28 00:33N 51°29' E 001°12'8 7.5
2016-Apr-27 23:33N 51°29' E 001°24'7 7.2
2016-Apr-27 22:33N 51°30' E 001°36'8 8.2
2016-Apr-27 21:33N 51°24' E 001°45'9 9.4
2016-Apr-27 20:34N 51°15' E 001°41'7 7.5
2016-Apr-27 19:34N 51°08' E 001°40'9 9.1
2016-Apr-27 18:33N 51°00' E 001°31'5610.2
2016-Apr-27 13:03N 50°26' E 000°22'612.0
2016-Apr-27 12:33N 50°24' E 000°13'1312.6
2016-Apr-27 11:34N 50°22' W 000°06'10510.2
2016-Apr-27 01:16N 50°11' W 002°49'810.9
2016-Apr-27 00:33N 50°09' W 003°01'1111.2
2016-Apr-26 23:34N 50°07' W 003°18'1211.5
2016-Apr-26 22:34N 50°04' W 003°35'1311.6
2016-Apr-26 21:28N 50°01' W 003°55'1211.6
2016-Apr-26 20:26N 49°59' W 004°13'1011.5
2016-Apr-26 19:34N 49°57' W 004°28'1211.5
2016-Apr-26 18:30N 49°55' W 004°47'145 8.5
2016-Apr-26 01:28N 52°15' W 005°50'1010.8
2016-Apr-26 00:33N 52°25' W 005°47'75 8.9
2016-Apr-25 16:06N 53°39' W 006°02'610.1
2016-Apr-25 15:30N 53°43' W 006°10'  
Track history (hours):
 
Tides and Currents Weather Stations Pressure Air Temp Water Temp Dewpoint Dewpoint Depression Visibility Wind Speed Wind Dir Waves Ship Positions

Flinterbirka

Last reported at 2016-May-04 13:31 UTC. Time now 2016-May-04 13:40 UTC.
Position N 55°27' E 012°12'.

Length 81 m; draft 5.2 m.

Type: Cargo ship. MMSI: 246525000.

Date/timePositionNaut miles runAvg speedWind from/ knotsBaromVisibWave heightAir tempDewpointWater temp
2016-May-04 13:31N 55°27' E 012°12'0 0.0
2016-May-04 12:28N 55°27' E 012°12'0 0.0
2016-May-04 11:33N 55°27' E 012°12'0 0.0
2016-May-04 10:30N 55°27' E 012°12'0 0.0
2016-May-04 09:32N 55°27' E 012°12'0 0.0
2016-May-04 08:32N 55°27' E 012°12'0 0.0
2016-May-04 07:28N 55°27' E 012°12'0 0.0
2016-May-04 06:28N 55°27' E 012°12'0 0.0
2016-May-04 05:28N 55°27' E 012°12'0 0.0
2016-May-04 04:30N 55°27' E 012°12'0 0.0
2016-May-04 03:33N 55°27' E 012°12'0 0.0
2016-May-04 02:29N 55°27' E 012°12'0 0.0
2016-May-04 01:32N 55°27' E 012°12'0 0.0
2016-May-04 00:31N 55°27' E 012°12'0 0.0
2016-May-03 23:31N 55°27' E 012°12'0 0.0
2016-May-03 22:34N 55°27' E 012°12'0 0.0
2016-May-03 21:33N 55°27' E 012°12'0 0.0
2016-May-03 20:30N 55°27' E 012°12'0 0.0
2016-May-03 19:32N 55°27' E 012°12'0 0.0
2016-May-03 18:29N 55°27' E 012°12'0 0.0
2016-May-03 17:31N 55°27' E 012°12'0 0.0
2016-May-03 16:31N 55°27' E 012°12'0 0.0
2016-May-03 15:30N 55°27' E 012°12'0 0.0
2016-May-03 14:27N 55°27' E 012°12'0 0.0
2016-May-03 13:33N 55°27' E 012°12'0 0.0
2016-May-03 12:29N 55°27' E 012°12'0 0.0
2016-May-03 11:32N 55°27' E 012°12'0 0.0
2016-May-03 10:31N 55°27' E 012°12'0 0.0
2016-May-03 09:31N 55°27' E 012°12'0 0.0
2016-May-03 08:30N 55°27' E 012°12'0 0.0
2016-May-03 07:33N 55°27' E 012°12'0 0.0
2016-May-03 06:27N 55°27' E 012°12'0 0.0
2016-May-03 05:32N 55°27' E 012°12'0 0.0
2016-May-03 04:32N 55°27' E 012°12'0 0.0
2016-May-03 03:25N 55°27' E 012°12'0 0.0
2016-May-03 02:28N 55°27' E 012°12'0 0.0
2016-May-03 01:33N 55°27' E 012°12'0 0.0
2016-May-03 00:21N 55°27' E 012°12'0 0.0
2016-May-02 23:33N 55°27' E 012°12'0 0.0
2016-May-02 22:32N 55°27' E 012°12'0 0.0
2016-May-02 21:32N 55°27' E 012°12'0 0.0
2016-May-02 20:31N 55°27' E 012°12'0 0.0
2016-May-02 19:28N 55°27' E 012°12'0 0.0
2016-May-02 18:24N 55°27' E 012°12'0 0.1
2016-May-02 17:33N 55°27' E 012°12'8 7.9
2016-May-02 16:34N 55°27' E 012°26'8 7.9
2016-May-02 15:33N 55°20' E 012°33'1110.5
2016-May-02 14:33N 55°10' E 012°34'1010.4
2016-May-02 13:33N 54°59' E 012°36'10 9.7
2016-May-02 12:33N 54°50' E 012°31'20 9.8
2016-May-02 10:33N 54°32' E 012°18'9 9.4
2016-May-02 09:33N 54°24' E 012°09'10 9.7
2016-May-02 08:34N 54°24' E 011°53'10 9.5
2016-May-02 07:33N 54°27' E 011°37'9 9.3
2016-May-02 06:33N 54°31' E 011°23'9 9.0
2016-May-02 05:34N 54°35' E 011°09'9 9.5
2016-May-02 04:33N 54°34' E 010°52'1010.2
2016-May-02 03:33N 54°33' E 010°35'1010.0
2016-May-02 02:32N 54°29' E 010°19'9 9.4
2016-May-02 01:33N 54°22' E 010°09'3 2.9
2016-May-02 00:33N 54°22' E 010°04'11 5.5
2016-May-01 22:33N 54°21' E 009°45'20 6.2
2016-May-01 19:22N 54°08' E 009°20'7 8.5
2016-May-01 18:33N 54°01' E 009°18'8 8.5
2016-May-01 17:33N 53°54' E 009°09'1 1.2
2016-May-01 16:33N 53°53' E 009°08'9 8.6
2016-May-01 15:33N 53°50' E 008°54'1010.0
2016-May-01 14:34N 53°56' E 008°40'1010.3
2016-May-01 13:34N 53°59' E 008°23'1110.6
2016-May-01 12:33N 53°59' E 008°05'1010.3
2016-May-01 11:33N 53°57' E 007°48'9 9.5
2016-May-01 10:33N 53°54' E 007°32'9 9.2
2016-May-01 09:33N 53°52' E 007°17'9 9.1
2016-May-01 08:33N 53°50' E 007°02'9 9.0
2016-May-01 07:33N 53°48' E 006°47'9 9.1
2016-May-01 06:33N 53°46' E 006°32'9 9.3
2016-May-01 05:33N 53°43' E 006°17'10 9.6
2016-May-01 04:33N 53°40' E 006°02'1010.0
2016-May-01 03:33N 53°37' E 005°46'1010.3
2016-May-01 02:33N 53°34' E 005°29'1110.8
2016-May-01 01:33N 53°31' E 005°12'159 9.7
2016-Apr-30 09:13N 51°40' E 002°04'710.7
2016-Apr-30 08:33N 51°36' E 001°55'1111.1
2016-Apr-30 07:34N 51°31' E 001°38'1110.8
2016-Apr-30 06:33N 51°29' E 001°22'1110.6
2016-Apr-30 05:33N 51°29' E 001°05'10 9.2
2016-Apr-30 04:31N 51°29' E 000°49'8 8.7
2016-Apr-30 03:33N 51°30' E 000°36'7 7.0
2016-Apr-30 02:34N 51°27' E 000°26'3 3.3
2016-Apr-30 01:34N 51°27' E 000°21'1 0.5
2016-Apr-30 00:34N 51°28' E 000°21'0 0.0
2016-Apr-29 23:34N 51°28' E 000°21'0 0.0
2016-Apr-29 22:33N 51°28' E 000°21'0 0.0
2016-Apr-29 21:34N 51°28' E 000°21'0 0.0
2016-Apr-29 20:34N 51°28' E 000°21'0 0.0
2016-Apr-29 19:34N 51°28' E 000°21'0 0.0
2016-Apr-29 18:34N 51°28' E 000°21'0 0.0
2016-Apr-29 17:33N 51°28' E 000°21'0 0.0
2016-Apr-29 16:34N 51°28' E 000°21'0 0.0
2016-Apr-29 15:34N 51°28' E 000°21'0 0.0
2016-Apr-29 14:34N 51°28' E 000°21'0 0.0
2016-Apr-29 13:34N 51°28' E 000°21'0 0.0
2016-Apr-29 12:34N 51°28' E 000°21'0 0.0
2016-Apr-29 11:34N 51°28' E 000°21'0 0.0
2016-Apr-29 10:34N 51°28' E 000°21'0 0.0
2016-Apr-29 09:34N 51°28' E 000°21'0 0.0
2016-Apr-29 08:34N 51°28' E 000°21'0 0.0
2016-Apr-29 07:34N 51°28' E 000°21'0 0.0
2016-Apr-29 06:33N 51°28' E 000°21'0 0.0
2016-Apr-29 05:33N 51°28' E 000°21'0 0.0
2016-Apr-29 04:33N 51°28' E 000°21'0 0.0
2016-Apr-29 03:33N 51°28' E 000°21'0 0.0
2016-Apr-29 02:33N 51°28' E 000°21'0 0.0
2016-Apr-29 01:33N 51°28' E 000°21'0 0.0
2016-Apr-29 00:33N 51°28' E 000°21'0 0.0
2016-Apr-28 23:33N 51°28' E 000°21'0 0.0
2016-Apr-28 22:33N 51°28' E 000°21'0 0.0
2016-Apr-28 21:33N 51°28' E 000°21'0 0.0
2016-Apr-28 20:33N 51°28' E 000°21'0 0.0
2016-Apr-28 19:33N 51°28' E 000°21'0 0.0
2016-Apr-28 18:33N 51°28' E 000°21'0 0.0
2016-Apr-28 17:33N 51°28' E 000°21'0 0.0
2016-Apr-28 16:33N 51°28' E 000°21'0 0.0
2016-Apr-28 15:33N 51°28' E 000°21'0 0.0
2016-Apr-28 14:34N 51°28' E 000°21'0 0.0
2016-Apr-28 13:33N 51°28' E 000°21'0 0.0
2016-Apr-28 12:33N 51°28' E 000°21'0 0.0
2016-Apr-28 11:34N 51°28' E 000°21'0 0.0
2016-Apr-28 10:33N 51°28' E 000°21'0 0.0
2016-Apr-28 09:33N 51°28' E 000°21'0 0.0
2016-Apr-28 08:34N 51°28' E 000°21'0 0.0
2016-Apr-28 07:34N 51°28' E 000°21'0 0.0
2016-Apr-28 06:34N 51°28' E 000°21'0 0.3
2016-Apr-28 05:33N 51°27' E 000°21'1 0.6
2016-Apr-28 04:34N 51°27' E 000°22'7 6.5
2016-Apr-28 03:34N 51°30' E 000°31'10 9.7
2016-Apr-28 02:34N 51°30' E 000°47'8 8.2
2016-Apr-28 01:32N 51°30' E 001°00'7 7.7
2016-Apr-28 00:33N 51°29' E 001°12'8 7.5
2016-Apr-27 23:33N 51°29' E 001°24'7 7.2
2016-Apr-27 22:33N 51°30' E 001°36'8 8.2
2016-Apr-27 21:33N 51°24' E 001°45'9 9.4
2016-Apr-27 20:34N 51°15' E 001°41'7 7.5
2016-Apr-27 19:34N 51°08' E 001°40'9 9.1
2016-Apr-27 18:33N 51°00' E 001°31'5610.2
2016-Apr-27 13:03N 50°26' E 000°22'612.0
2016-Apr-27 12:33N 50°24' E 000°13'1312.6
2016-Apr-27 11:34N 50°22' W 000°06'10510.2
2016-Apr-27 01:16N 50°11' W 002°49'810.9
2016-Apr-27 00:33N 50°09' W 003°01'1111.2
2016-Apr-26 23:34N 50°07' W 003°18'1211.5
2016-Apr-26 22:34N 50°04' W 003°35'1311.6
2016-Apr-26 21:28N 50°01' W 003°55'1211.6
2016-Apr-26 20:26N 49°59' W 004°13'1011.5
2016-Apr-26 19:34N 49°57' W 004°28'1211.5
2016-Apr-26 18:30N 49°55' W 004°47'145 8.5
2016-Apr-26 01:28N 52°15' W 005°50'1010.8
2016-Apr-26 00:33N 52°25' W 005°47'75 8.9
2016-Apr-25 16:06N 53°39' W 006°02'610.1
2016-Apr-25 15:30N 53°43' W 006°10'  

Dump ship's entire track history